sensor_id;sensor_type;location;lat;lon;timestamp;P1;durP1;ratioP1;P2;durP2;ratioP2
12956;SDS011;6543;48.836;10.092;2023-03-01T00:01:38;22.40;;;13.87;;
12956;SDS011;6543;48.836;10.092;2023-03-01T00:04:05;21.67;;;14.20;;
12956;SDS011;6543;48.836;10.092;2023-03-01T00:06:32;21.43;;;13.60;;
12956;SDS011;6543;48.836;10.092;2023-03-01T00:08:59;19.83;;;13.40;;
12956;SDS011;6543;48.836;10.092;2023-03-01T00:11:26;20.50;;;13.90;;
12956;SDS011;6543;48.836;10.092;2023-03-01T00:13:54;22.47;;;13.60;;
12956;SDS011;6543;48.836;10.092;2023-03-01T00:16:23;19.37;;;13.97;;
12956;SDS011;6543;48.836;10.092;2023-03-01T00:18:54;23.07;;;14.47;;
12956;SDS011;6543;48.836;10.092;2023-03-01T00:21:21;20.93;;;13.87;;
12956;SDS011;6543;48.836;10.092;2023-03-01T00:23:49;21.13;;;13.63;;
12956;SDS011;6543;48.836;10.092;2023-03-01T00:26:17;22.33;;;13.40;;
12956;SDS011;6543;48.836;10.092;2023-03-01T00:28:44;22.00;;;15.20;;
12956;SDS011;6543;48.836;10.092;2023-03-01T00:31:13;22.93;;;15.23;;
12956;SDS011;6543;48.836;10.092;2023-03-01T00:33:41;22.57;;;13.80;;
12956;SDS011;6543;48.836;10.092;2023-03-01T00:36:10;23.63;;;12.80;;
12956;SDS011;6543;48.836;10.092;2023-03-01T00:38:38;21.93;;;12.40;;
12956;SDS011;6543;48.836;10.092;2023-03-01T00:41:08;20.63;;;13.90;;
12956;SDS011;6543;48.836;10.092;2023-03-01T00:43:36;21.27;;;13.30;;
12956;SDS011;6543;48.836;10.092;2023-03-01T00:46:03;19.80;;;14.03;;
12956;SDS011;6543;48.836;10.092;2023-03-01T00:48:32;19.30;;;11.53;;
12956;SDS011;6543;48.836;10.092;2023-03-01T00:51:03;22.17;;;12.63;;
12956;SDS011;6543;48.836;10.092;2023-03-01T00:53:33;20.60;;;12.93;;
12956;SDS011;6543;48.836;10.092;2023-03-01T00:56:00;20.47;;;14.03;;
12956;SDS011;6543;48.836;10.092;2023-03-01T00:58:27;23.23;;;14.50;;
12956;SDS011;6543;48.836;10.092;2023-03-01T01:00:54;21.57;;;14.07;;
12956;SDS011;6543;48.836;10.092;2023-03-01T01:03:21;21.63;;;13.10;;
12956;SDS011;6543;48.836;10.092;2023-03-01T01:05:49;18.83;;;13.07;;
12956;SDS011;6543;48.836;10.092;2023-03-01T01:08:16;21.63;;;13.87;;
12956;SDS011;6543;48.836;10.092;2023-03-01T01:10:45;20.53;;;13.83;;
12956;SDS011;6543;48.836;10.092;2023-03-01T01:13:12;23.17;;;13.63;;
12956;SDS011;6543;48.836;10.092;2023-03-01T01:15:40;23.77;;;14.37;;
12956;SDS011;6543;48.836;10.092;2023-03-01T01:18:07;18.43;;;12.57;;
12956;SDS011;6543;48.836;10.092;2023-03-01T01:20:35;20.10;;;13.83;;
12956;SDS011;6543;48.836;10.092;2023-03-01T01:23:02;21.93;;;14.03;;
12956;SDS011;6543;48.836;10.092;2023-03-01T01:25:33;24.10;;;13.77;;
12956;SDS011;6543;48.836;10.092;2023-03-01T01:28:02;22.13;;;15.13;;
12956;SDS011;6543;48.836;10.092;2023-03-01T01:30:29;20.63;;;14.53;;
12956;SDS011;6543;48.836;10.092;2023-03-01T01:32:56;22.53;;;14.53;;
12956;SDS011;6543;48.836;10.092;2023-03-01T01:35:24;25.03;;;15.20;;
12956;SDS011;6543;48.836;10.092;2023-03-01T01:37:51;24.60;;;14.53;;
12956;SDS011;6543;48.836;10.092;2023-03-01T01:40:18;23.73;;;15.27;;
12956;SDS011;6543;48.836;10.092;2023-03-01T01:42:45;20.67;;;13.37;;
12956;SDS011;6543;48.836;10.092;2023-03-01T01:45:27;22.20;;;14.57;;
12956;SDS011;6543;48.836;10.092;2023-03-01T01:47:58;20.77;;;13.43;;
12956;SDS011;6543;48.836;10.092;2023-03-01T01:50:28;23.17;;;14.70;;
12956;SDS011;6543;48.836;10.092;2023-03-01T01:53:03;20.83;;;14.00;;
12956;SDS011;6543;48.836;10.092;2023-03-01T01:55:35;18.40;;;12.40;;
12956;SDS011;6543;48.836;10.092;2023-03-01T01:58:06;23.97;;;14.77;;
12956;SDS011;6543;48.836;10.092;2023-03-01T02:00:38;23.93;;;15.40;;
12956;SDS011;6543;48.836;10.092;2023-03-01T02:03:07;22.37;;;14.33;;
12956;SDS011;6543;48.836;10.092;2023-03-01T02:05:38;19.80;;;12.97;;
12956;SDS011;6543;48.836;10.092;2023-03-01T02:08:11;22.17;;;12.63;;
12956;SDS011;6543;48.836;10.092;2023-03-01T02:10:40;22.87;;;14.77;;
12956;SDS011;6543;48.836;10.092;2023-03-01T02:13:07;25.73;;;15.43;;
12956;SDS011;6543;48.836;10.092;2023-03-01T02:15:35;22.23;;;15.13;;
12956;SDS011;6543;48.836;10.092;2023-03-01T02:18:04;23.30;;;13.93;;
12956;SDS011;6543;48.836;10.092;2023-03-01T02:20:33;22.97;;;15.13;;
12956;SDS011;6543;48.836;10.092;2023-03-01T02:23:06;22.47;;;14.93;;
12956;SDS011;6543;48.836;10.092;2023-03-01T02:25:35;23.93;;;15.67;;
12956;SDS011;6543;48.836;10.092;2023-03-01T02:28:08;22.47;;;14.97;;
12956;SDS011;6543;48.836;10.092;2023-03-01T02:30:46;19.57;;;13.00;;
12956;SDS011;6543;48.836;10.092;2023-03-01T02:33:29;22.70;;;13.83;;
12956;SDS011;6543;48.836;10.092;2023-03-01T02:35:57;23.77;;;15.40;;
12956;SDS011;6543;48.836;10.092;2023-03-01T02:38:26;23.00;;;15.33;;
12956;SDS011;6543;48.836;10.092;2023-03-01T02:40:54;22.03;;;15.00;;
12956;SDS011;6543;48.836;10.092;2023-03-01T02:43:26;22.77;;;14.50;;
12956;SDS011;6543;48.836;10.092;2023-03-01T02:45:57;24.33;;;15.77;;
12956;SDS011;6543;48.836;10.092;2023-03-01T02:48:25;21.00;;;14.30;;
12956;SDS011;6543;48.836;10.092;2023-03-01T02:50:54;22.40;;;14.43;;
12956;SDS011;6543;48.836;10.092;2023-03-01T02:53:33;25.77;;;16.30;;
12956;SDS011;6543;48.836;10.092;2023-03-01T02:56:05;29.43;;;14.63;;
12956;SDS011;6543;48.836;10.092;2023-03-01T02:58:39;22.13;;;14.23;;
12956;SDS011;6543;48.836;10.092;2023-03-01T03:01:10;24.73;;;15.93;;
12956;SDS011;6543;48.836;10.092;2023-03-01T03:03:38;24.80;;;16.83;;
12956;SDS011;6543;48.836;10.092;2023-03-01T03:06:05;23.33;;;15.60;;
12956;SDS011;6543;48.836;10.092;2023-03-01T03:08:32;26.63;;;15.67;;
12956;SDS011;6543;48.836;10.092;2023-03-01T03:10:59;23.37;;;14.83;;
12956;SDS011;6543;48.836;10.092;2023-03-01T03:13:26;22.70;;;15.20;;
12956;SDS011;6543;48.836;10.092;2023-03-01T03:15:55;24.00;;;14.77;;
12956;SDS011;6543;48.836;10.092;2023-03-01T03:18:22;15.60;;;11.63;;
12956;SDS011;6543;48.836;10.092;2023-03-01T03:20:50;24.10;;;16.03;;
12956;SDS011;6543;48.836;10.092;2023-03-01T03:23:18;27.80;;;15.27;;
12956;SDS011;6543;48.836;10.092;2023-03-01T03:25:47;24.03;;;15.03;;
12956;SDS011;6543;48.836;10.092;2023-03-01T03:28:15;22.63;;;15.50;;
12956;SDS011;6543;48.836;10.092;2023-03-01T03:30:42;21.80;;;14.83;;
12956;SDS011;6543;48.836;10.092;2023-03-01T03:33:11;21.43;;;14.93;;
12956;SDS011;6543;48.836;10.092;2023-03-01T03:35:39;24.93;;;15.83;;
12956;SDS011;6543;48.836;10.092;2023-03-01T03:38:09;23.97;;;15.00;;
12956;SDS011;6543;48.836;10.092;2023-03-01T03:40:41;21.50;;;14.90;;
12956;SDS011;6543;48.836;10.092;2023-03-01T03:43:10;21.63;;;14.27;;
12956;SDS011;6543;48.836;10.092;2023-03-01T03:45:38;22.83;;;15.50;;
12956;SDS011;6543;48.836;10.092;2023-03-01T03:48:06;23.43;;;15.87;;
12956;SDS011;6543;48.836;10.092;2023-03-01T03:50:35;17.17;;;12.03;;
12956;SDS011;6543;48.836;10.092;2023-03-01T03:53:04;23.43;;;15.10;;
12956;SDS011;6543;48.836;10.092;2023-03-01T03:55:32;23.73;;;15.93;;
12956;SDS011;6543;48.836;10.092;2023-03-01T03:58:00;26.10;;;13.80;;
12956;SDS011;6543;48.836;10.092;2023-03-01T04:00:31;23.97;;;15.83;;
12956;SDS011;6543;48.836;10.092;2023-03-01T04:02:59;23.63;;;16.17;;
12956;SDS011;6543;48.836;10.092;2023-03-01T04:05:26;21.17;;;14.63;;
12956;SDS011;6543;48.836;10.092;2023-03-01T04:07:55;23.90;;;15.40;;
12956;SDS011;6543;48.836;10.092;2023-03-01T04:10:33;24.43;;;15.47;;
12956;SDS011;6543;48.836;10.092;2023-03-01T04:13:01;24.53;;;14.77;;
12956;SDS011;6543;48.836;10.092;2023-03-01T04:15:28;26.40;;;17.00;;
12956;SDS011;6543;48.836;10.092;2023-03-01T04:17:57;22.43;;;15.00;;
12956;SDS011;6543;48.836;10.092;2023-03-01T04:20:27;21.83;;;15.03;;
12956;SDS011;6543;48.836;10.092;2023-03-01T04:22:58;23.03;;;14.57;;
12956;SDS011;6543;48.836;10.092;2023-03-01T04:25:35;23.93;;;15.03;;
12956;SDS011;6543;48.836;10.092;2023-03-01T04:28:03;21.03;;;15.13;;
12956;SDS011;6543;48.836;10.092;2023-03-01T04:30:30;22.93;;;15.10;;
12956;SDS011;6543;48.836;10.092;2023-03-01T04:33:00;26.83;;;15.80;;
12956;SDS011;6543;48.836;10.092;2023-03-01T04:35:28;22.83;;;14.70;;
12956;SDS011;6543;48.836;10.092;2023-03-01T04:37:55;23.07;;;15.90;;
12956;SDS011;6543;48.836;10.092;2023-03-01T04:40:23;26.10;;;15.80;;
12956;SDS011;6543;48.836;10.092;2023-03-01T04:42:50;22.30;;;15.13;;
12956;SDS011;6543;48.836;10.092;2023-03-01T04:45:17;24.50;;;15.53;;
12956;SDS011;6543;48.836;10.092;2023-03-01T04:47:45;23.50;;;15.33;;
12956;SDS011;6543;48.836;10.092;2023-03-01T04:50:13;22.90;;;15.00;;
12956;SDS011;6543;48.836;10.092;2023-03-01T04:52:41;22.60;;;15.73;;
12956;SDS011;6543;48.836;10.092;2023-03-01T04:55:08;23.13;;;16.03;;
12956;SDS011;6543;48.836;10.092;2023-03-01T04:57:37;22.10;;;14.27;;
12956;SDS011;6543;48.836;10.092;2023-03-01T05:00:05;22.00;;;16.00;;
12956;SDS011;6543;48.836;10.092;2023-03-01T05:02:45;21.63;;;15.00;;
12956;SDS011;6543;48.836;10.092;2023-03-01T05:05:13;20.00;;;13.33;;
12956;SDS011;6543;48.836;10.092;2023-03-01T05:07:40;21.40;;;15.67;;
12956;SDS011;6543;48.836;10.092;2023-03-01T05:10:08;21.63;;;14.57;;
12956;SDS011;6543;48.836;10.092;2023-03-01T05:12:35;22.57;;;14.77;;
12956;SDS011;6543;48.836;10.092;2023-03-01T05:15:04;22.13;;;16.00;;
12956;SDS011;6543;48.836;10.092;2023-03-01T05:17:32;22.80;;;14.60;;
12956;SDS011;6543;48.836;10.092;2023-03-01T05:19:59;25.67;;;14.87;;
12956;SDS011;6543;48.836;10.092;2023-03-01T05:22:29;21.37;;;14.27;;
12956;SDS011;6543;48.836;10.092;2023-03-01T05:24:56;23.37;;;14.60;;
12956;SDS011;6543;48.836;10.092;2023-03-01T05:27:22;23.37;;;15.87;;
12956;SDS011;6543;48.836;10.092;2023-03-01T05:29:49;23.83;;;15.33;;
12956;SDS011;6543;48.836;10.092;2023-03-01T05:32:17;26.40;;;15.93;;
12956;SDS011;6543;48.836;10.092;2023-03-01T05:34:44;23.60;;;16.07;;
12956;SDS011;6543;48.836;10.092;2023-03-01T05:37:12;25.30;;;17.13;;
12956;SDS011;6543;48.836;10.092;2023-03-01T05:39:39;24.27;;;16.67;;
12956;SDS011;6543;48.836;10.092;2023-03-01T05:42:09;20.60;;;12.33;;
12956;SDS011;6543;48.836;10.092;2023-03-01T05:44:37;31.10;;;17.83;;
12956;SDS011;6543;48.836;10.092;2023-03-01T05:47:04;27.80;;;17.53;;
12956;SDS011;6543;48.836;10.092;2023-03-01T05:49:32;28.03;;;17.27;;
12956;SDS011;6543;48.836;10.092;2023-03-01T05:51:59;26.67;;;17.13;;
12956;SDS011;6543;48.836;10.092;2023-03-01T05:54:26;25.07;;;16.20;;
12956;SDS011;6543;48.836;10.092;2023-03-01T05:56:53;29.87;;;16.70;;
12956;SDS011;6543;48.836;10.092;2023-03-01T05:59:21;27.60;;;16.93;;
12956;SDS011;6543;48.836;10.092;2023-03-01T06:01:48;27.43;;;17.10;;
12956;SDS011;6543;48.836;10.092;2023-03-01T06:04:17;26.17;;;16.53;;
12956;SDS011;6543;48.836;10.092;2023-03-01T06:06:45;28.93;;;16.80;;
12956;SDS011;6543;48.836;10.092;2023-03-01T06:09:12;27.87;;;17.80;;
12956;SDS011;6543;48.836;10.092;2023-03-01T06:11:39;24.67;;;16.60;;
12956;SDS011;6543;48.836;10.092;2023-03-01T06:14:06;28.40;;;17.70;;
12956;SDS011;6543;48.836;10.092;2023-03-01T06:16:35;25.30;;;15.93;;
12956;SDS011;6543;48.836;10.092;2023-03-01T06:19:02;34.37;;;19.33;;
12956;SDS011;6543;48.836;10.092;2023-03-01T06:21:29;28.33;;;15.83;;
12956;SDS011;6543;48.836;10.092;2023-03-01T06:23:57;28.63;;;19.77;;
12956;SDS011;6543;48.836;10.092;2023-03-01T06:26:24;28.67;;;17.10;;
12956;SDS011;6543;48.836;10.092;2023-03-01T06:28:51;29.83;;;17.43;;
12956;SDS011;6543;48.836;10.092;2023-03-01T06:31:17;33.73;;;17.93;;
12956;SDS011;6543;48.836;10.092;2023-03-01T06:33:44;25.97;;;16.83;;
12956;SDS011;6543;48.836;10.092;2023-03-01T06:36:11;28.60;;;16.40;;
12956;SDS011;6543;48.836;10.092;2023-03-01T06:38:38;26.00;;;17.20;;
12956;SDS011;6543;48.836;10.092;2023-03-01T06:41:07;31.60;;;16.70;;
12956;SDS011;6543;48.836;10.092;2023-03-01T06:43:34;29.80;;;18.33;;
12956;SDS011;6543;48.836;10.092;2023-03-01T06:46:03;25.20;;;17.10;;
12956;SDS011;6543;48.836;10.092;2023-03-01T06:48:32;33.40;;;17.97;;
12956;SDS011;6543;48.836;10.092;2023-03-01T06:50:59;29.73;;;18.13;;
12956;SDS011;6543;48.836;10.092;2023-03-01T06:53:27;29.60;;;18.33;;
12956;SDS011;6543;48.836;10.092;2023-03-01T06:55:54;26.63;;;17.13;;
12956;SDS011;6543;48.836;10.092;2023-03-01T06:58:23;27.67;;;17.87;;
12956;SDS011;6543;48.836;10.092;2023-03-01T07:00:50;23.90;;;17.30;;
12956;SDS011;6543;48.836;10.092;2023-03-01T07:03:16;27.23;;;16.67;;
12956;SDS011;6543;48.836;10.092;2023-03-01T07:05:43;25.07;;;16.73;;
12956;SDS011;6543;48.836;10.092;2023-03-01T07:08:10;25.00;;;17.03;;
12956;SDS011;6543;48.836;10.092;2023-03-01T07:10:37;28.83;;;17.67;;
12956;SDS011;6543;48.836;10.092;2023-03-01T07:13:04;25.47;;;17.53;;
12956;SDS011;6543;48.836;10.092;2023-03-01T07:15:33;26.87;;;16.37;;
12956;SDS011;6543;48.836;10.092;2023-03-01T07:18:00;24.70;;;14.77;;
12956;SDS011;6543;48.836;10.092;2023-03-01T07:20:27;23.83;;;16.33;;
12956;SDS011;6543;48.836;10.092;2023-03-01T07:22:54;26.93;;;18.13;;
12956;SDS011;6543;48.836;10.092;2023-03-01T07:25:24;31.20;;;16.90;;
12956;SDS011;6543;48.836;10.092;2023-03-01T07:27:52;27.97;;;17.33;;
12956;SDS011;6543;48.836;10.092;2023-03-01T07:30:20;26.97;;;16.83;;
12956;SDS011;6543;48.836;10.092;2023-03-01T07:32:49;25.50;;;16.20;;
12956;SDS011;6543;48.836;10.092;2023-03-01T07:35:16;26.57;;;16.63;;
12956;SDS011;6543;48.836;10.092;2023-03-01T07:37:43;23.43;;;15.73;;
12956;SDS011;6543;48.836;10.092;2023-03-01T07:40:10;29.57;;;15.53;;
12956;SDS011;6543;48.836;10.092;2023-03-01T07:42:38;28.20;;;17.30;;
12956;SDS011;6543;48.836;10.092;2023-03-01T07:45:06;29.57;;;15.87;;
12956;SDS011;6543;48.836;10.092;2023-03-01T07:47:33;25.13;;;16.97;;
12956;SDS011;6543;48.836;10.092;2023-03-01T07:50:04;26.57;;;16.10;;
12956;SDS011;6543;48.836;10.092;2023-03-01T07:52:31;22.33;;;15.03;;
12956;SDS011;6543;48.836;10.092;2023-03-01T07:54:58;26.52;;;17.92;;
12956;SDS011;6543;48.836;10.092;2023-03-01T07:57:36;31.03;;;17.30;;
12956;SDS011;6543;48.836;10.092;2023-03-01T08:00:24;25.70;;;16.43;;
12956;SDS011;6543;48.836;10.092;2023-03-01T08:02:59;24.60;;;15.10;;
12956;SDS011;6543;48.836;10.092;2023-03-01T08:08:19;24.93;;;16.37;;
12956;SDS011;6543;48.836;10.092;2023-03-01T08:10:45;21.50;;;11.80;;
12956;SDS011;6543;48.836;10.092;2023-03-01T08:13:13;22.17;;;14.97;;
12956;SDS011;6543;48.836;10.092;2023-03-01T08:15:39;25.93;;;15.40;;
12956;SDS011;6543;48.836;10.092;2023-03-01T08:18:06;22.77;;;15.37;;
12956;SDS011;6543;48.836;10.092;2023-03-01T08:20:33;28.47;;;16.73;;
12956;SDS011;6543;48.836;10.092;2023-03-01T08:23:02;25.10;;;15.67;;
12956;SDS011;6543;48.836;10.092;2023-03-01T08:25:29;21.23;;;14.17;;
12956;SDS011;6543;48.836;10.092;2023-03-01T08:27:56;22.13;;;14.93;;
12956;SDS011;6543;48.836;10.092;2023-03-01T08:30:26;25.57;;;15.40;;
12956;SDS011;6543;48.836;10.092;2023-03-01T08:32:54;26.73;;;15.93;;
12956;SDS011;6543;48.836;10.092;2023-03-01T08:35:40;22.70;;;15.27;;
12956;SDS011;6543;48.836;10.092;2023-03-01T08:38:12;23.23;;;15.00;;
12956;SDS011;6543;48.836;10.092;2023-03-01T08:40:39;20.70;;;14.00;;
12956;SDS011;6543;48.836;10.092;2023-03-01T08:43:06;20.13;;;14.63;;
12956;SDS011;6543;48.836;10.092;2023-03-01T08:45:33;22.77;;;14.77;;
12956;SDS011;6543;48.836;10.092;2023-03-01T08:48:02;21.63;;;13.73;;
12956;SDS011;6543;48.836;10.092;2023-03-01T08:50:30;17.93;;;12.27;;
12956;SDS011;6543;48.836;10.092;2023-03-01T08:52:57;21.47;;;13.93;;
12956;SDS011;6543;48.836;10.092;2023-03-01T08:55:28;26.67;;;14.63;;
12956;SDS011;6543;48.836;10.092;2023-03-01T08:58:05;23.50;;;14.13;;
12956;SDS011;6543;48.836;10.092;2023-03-01T09:00:35;21.27;;;13.57;;
12956;SDS011;6543;48.836;10.092;2023-03-01T09:03:02;21.08;;;15.45;;
12956;SDS011;6543;48.836;10.092;2023-03-01T09:05:30;19.37;;;14.03;;
12956;SDS011;6543;48.836;10.092;2023-03-01T09:08:01;22.20;;;14.20;;
12956;SDS011;6543;48.836;10.092;2023-03-01T09:10:29;20.63;;;13.33;;
12956;SDS011;6543;48.836;10.092;2023-03-01T09:12:56;18.97;;;14.30;;
12956;SDS011;6543;48.836;10.092;2023-03-01T09:15:23;20.87;;;14.37;;
12956;SDS011;6543;48.836;10.092;2023-03-01T09:17:50;25.23;;;14.03;;
12956;SDS011;6543;48.836;10.092;2023-03-01T09:20:17;23.00;;;14.93;;
12956;SDS011;6543;48.836;10.092;2023-03-01T09:22:44;17.97;;;10.93;;
12956;SDS011;6543;48.836;10.092;2023-03-01T09:25:11;20.87;;;13.57;;
12956;SDS011;6543;48.836;10.092;2023-03-01T09:27:40;19.43;;;13.57;;
12956;SDS011;6543;48.836;10.092;2023-03-01T09:30:10;20.10;;;12.27;;
12956;SDS011;6543;48.836;10.092;2023-03-01T09:32:41;20.60;;;14.30;;
12956;SDS011;6543;48.836;10.092;2023-03-01T09:35:13;22.97;;;14.60;;
12956;SDS011;6543;48.836;10.092;2023-03-01T09:37:41;22.57;;;16.97;;
12956;SDS011;6543;48.836;10.092;2023-03-01T09:40:11;22.27;;;15.33;;
12956;SDS011;6543;48.836;10.092;2023-03-01T09:42:48;20.93;;;14.60;;
12956;SDS011;6543;48.836;10.092;2023-03-01T09:45:29;19.10;;;14.17;;
12956;SDS011;6543;48.836;10.092;2023-03-01T09:48:01;21.37;;;14.70;;
12956;SDS011;6543;48.836;10.092;2023-03-01T09:50:32;22.03;;;14.77;;
12956;SDS011;6543;48.836;10.092;2023-03-01T09:53:02;23.08;;;16.45;;
12956;SDS011;6543;48.836;10.092;2023-03-01T09:55:33;24.10;;;16.27;;
12956;SDS011;6543;48.836;10.092;2023-03-01T09:58:15;24.03;;;16.27;;
12956;SDS011;6543;48.836;10.092;2023-03-01T10:00:58;27.27;;;15.30;;
12956;SDS011;6543;48.836;10.092;2023-03-01T10:03:31;21.80;;;15.93;;
12956;SDS011;6543;48.836;10.092;2023-03-01T10:06:04;20.93;;;13.73;;
12956;SDS011;6543;48.836;10.092;2023-03-01T10:08:42;21.47;;;13.83;;
12956;SDS011;6543;48.836;10.092;2023-03-01T10:11:17;19.00;;;13.40;;
12956;SDS011;6543;48.836;10.092;2023-03-01T10:13:50;21.87;;;14.77;;
12956;SDS011;6543;48.836;10.092;2023-03-01T10:16:24;25.03;;;16.70;;
12956;SDS011;6543;48.836;10.092;2023-03-01T10:18:55;21.50;;;14.63;;
12956;SDS011;6543;48.836;10.092;2023-03-01T10:21:26;22.27;;;15.57;;
12956;SDS011;6543;48.836;10.092;2023-03-01T10:24:05;20.80;;;14.20;;
12956;SDS011;6543;48.836;10.092;2023-03-01T10:26:39;18.13;;;13.87;;
12956;SDS011;6543;48.836;10.092;2023-03-01T10:29:15;20.60;;;13.63;;
12956;SDS011;6543;48.836;10.092;2023-03-01T10:31:43;23.13;;;15.20;;
12956;SDS011;6543;48.836;10.092;2023-03-01T10:34:14;19.47;;;13.87;;
12956;SDS011;6543;48.836;10.092;2023-03-01T10:40:06;21.97;;;13.93;;
12956;SDS011;6543;48.836;10.092;2023-03-01T10:42:55;22.50;;;14.07;;
12956;SDS011;6543;48.836;10.092;2023-03-01T10:45:33;19.47;;;13.83;;
12956;SDS011;6543;48.836;10.092;2023-03-01T10:48:08;22.03;;;13.87;;
12956;SDS011;6543;48.836;10.092;2023-03-01T10:50:48;19.27;;;13.50;;
12956;SDS011;6543;48.836;10.092;2023-03-01T10:53:20;23.00;;;14.40;;
12956;SDS011;6543;48.836;10.092;2023-03-01T10:56:02;18.27;;;13.50;;
12956;SDS011;6543;48.836;10.092;2023-03-01T10:58:37;13.93;;;10.27;;
12956;SDS011;6543;48.836;10.092;2023-03-01T11:01:24;17.03;;;12.23;;
12956;SDS011;6543;48.836;10.092;2023-03-01T11:04:08;17.10;;;11.57;;
12956;SDS011;6543;48.836;10.092;2023-03-01T11:06:41;18.70;;;11.70;;
12956;SDS011;6543;48.836;10.092;2023-03-01T11:12:16;17.80;;;11.17;;
12956;SDS011;6543;48.836;10.092;2023-03-01T11:14:46;19.17;;;12.53;;
12956;SDS011;6543;48.836;10.092;2023-03-01T11:17:21;19.47;;;11.63;;
12956;SDS011;6543;48.836;10.092;2023-03-01T11:20:00;18.70;;;11.40;;
12956;SDS011;6543;48.836;10.092;2023-03-01T11:22:32;18.83;;;12.17;;
12956;SDS011;6543;48.836;10.092;2023-03-01T11:25:02;20.47;;;12.73;;
12956;SDS011;6543;48.836;10.092;2023-03-01T11:27:31;19.07;;;12.27;;
12956;SDS011;6543;48.836;10.092;2023-03-01T11:30:02;16.50;;;11.57;;
12956;SDS011;6543;48.836;10.092;2023-03-01T11:32:40;18.40;;;12.80;;
12956;SDS011;6543;48.836;10.092;2023-03-01T11:35:14;20.30;;;11.60;;
12956;SDS011;6543;48.836;10.092;2023-03-01T11:37:44;17.07;;;11.60;;
12956;SDS011;6543;48.836;10.092;2023-03-01T11:40:25;19.67;;;11.83;;
12956;SDS011;6543;48.836;10.092;2023-03-01T11:42:59;20.27;;;10.53;;
12956;SDS011;6543;48.836;10.092;2023-03-01T11:45:35;19.97;;;11.97;;
12956;SDS011;6543;48.836;10.092;2023-03-01T11:48:17;16.10;;;12.00;;
12956;SDS011;6543;48.836;10.092;2023-03-01T11:51:09;16.37;;;11.83;;
12956;SDS011;6543;48.836;10.092;2023-03-01T11:53:50;17.10;;;12.00;;
12956;SDS011;6543;48.836;10.092;2023-03-01T11:56:27;16.87;;;11.77;;
12956;SDS011;6543;48.836;10.092;2023-03-01T11:59:16;20.23;;;14.23;;
12956;SDS011;6543;48.836;10.092;2023-03-01T12:01:57;18.90;;;10.87;;
12956;SDS011;6543;48.836;10.092;2023-03-01T12:04:53;20.20;;;11.90;;
12956;SDS011;6543;48.836;10.092;2023-03-01T12:07:43;18.17;;;12.00;;
12956;SDS011;6543;48.836;10.092;2023-03-01T12:10:20;22.20;;;13.97;;
12956;SDS011;6543;48.836;10.092;2023-03-01T12:15:57;20.90;;;14.07;;
12956;SDS011;6543;48.836;10.092;2023-03-01T12:21:34;21.00;;;13.37;;
12956;SDS011;6543;48.836;10.092;2023-03-01T12:24:25;23.53;;;14.40;;
12956;SDS011;6543;48.836;10.092;2023-03-01T12:27:25;22.40;;;14.50;;
12956;SDS011;6543;48.836;10.092;2023-03-01T12:30:16;24.27;;;13.60;;
12956;SDS011;6543;48.836;10.092;2023-03-01T12:32:58;23.83;;;13.23;;
12956;SDS011;6543;48.836;10.092;2023-03-01T12:38:45;21.03;;;13.70;;
12956;SDS011;6543;48.836;10.092;2023-03-01T12:41:34;20.23;;;15.07;;
12956;SDS011;6543;48.836;10.092;2023-03-01T12:44:26;27.33;;;15.60;;
12956;SDS011;6543;48.836;10.092;2023-03-01T12:47:26;22.87;;;15.40;;
12956;SDS011;6543;48.836;10.092;2023-03-01T12:50:11;21.87;;;15.23;;
12956;SDS011;6543;48.836;10.092;2023-03-01T12:52:46;21.67;;;15.33;;
12956;SDS011;6543;48.836;10.092;2023-03-01T12:58:22;25.23;;;15.47;;
12956;SDS011;6543;48.836;10.092;2023-03-01T13:00:59;20.63;;;14.20;;
12956;SDS011;6543;48.836;10.092;2023-03-01T13:03:36;27.13;;;15.93;;
12956;SDS011;6543;48.836;10.092;2023-03-01T13:06:15;23.40;;;15.07;;
12956;SDS011;6543;48.836;10.092;2023-03-01T13:08:54;23.03;;;16.10;;
12956;SDS011;6543;48.836;10.092;2023-03-01T13:11:33;17.67;;;13.30;;
12956;SDS011;6543;48.836;10.092;2023-03-01T13:17:33;21.77;;;15.27;;
12956;SDS011;6543;48.836;10.092;2023-03-01T13:20:25;20.37;;;13.60;;
12956;SDS011;6543;48.836;10.092;2023-03-01T13:26:01;16.43;;;13.27;;
12956;SDS011;6543;48.836;10.092;2023-03-01T13:28:40;18.23;;;13.70;;
12956;SDS011;6543;48.836;10.092;2023-03-01T13:34:41;20.35;;;15.43;;
12956;SDS011;6543;48.836;10.092;2023-03-01T13:37:20;19.30;;;13.73;;
12956;SDS011;6543;48.836;10.092;2023-03-01T13:46:00;16.63;;;11.83;;
12956;SDS011;6543;48.836;10.092;2023-03-01T13:48:51;22.17;;;13.40;;
12956;SDS011;6543;48.836;10.092;2023-03-01T13:51:29;18.20;;;12.50;;
12956;SDS011;6543;48.836;10.092;2023-03-01T13:53:58;19.83;;;11.70;;
12956;SDS011;6543;48.836;10.092;2023-03-01T13:56:38;19.97;;;12.33;;
12956;SDS011;6543;48.836;10.092;2023-03-01T13:59:29;19.00;;;11.73;;
12956;SDS011;6543;48.836;10.092;2023-03-01T14:01:58;21.90;;;14.20;;
12956;SDS011;6543;48.836;10.092;2023-03-01T14:04:27;18.97;;;13.77;;
12956;SDS011;6543;48.836;10.092;2023-03-01T14:07:08;19.90;;;13.60;;
12956;SDS011;6543;48.836;10.092;2023-03-01T14:09:39;22.73;;;15.03;;
12956;SDS011;6543;48.836;10.092;2023-03-01T14:12:23;19.37;;;12.87;;
12956;SDS011;6543;48.836;10.092;2023-03-01T14:15:01;24.77;;;14.97;;
12956;SDS011;6543;48.836;10.092;2023-03-01T14:17:42;19.63;;;14.93;;
12956;SDS011;6543;48.836;10.092;2023-03-01T14:20:17;26.30;;;14.17;;
12956;SDS011;6543;48.836;10.092;2023-03-01T14:22:51;22.57;;;13.77;;
12956;SDS011;6543;48.836;10.092;2023-03-01T14:25:24;19.07;;;13.27;;
12956;SDS011;6543;48.836;10.092;2023-03-01T14:27:55;22.77;;;13.70;;
12956;SDS011;6543;48.836;10.092;2023-03-01T14:30:25;20.70;;;14.13;;
12956;SDS011;6543;48.836;10.092;2023-03-01T14:32:58;22.47;;;14.63;;
12956;SDS011;6543;48.836;10.092;2023-03-01T14:35:26;19.77;;;13.57;;
12956;SDS011;6543;48.836;10.092;2023-03-01T14:37:54;18.97;;;13.03;;
12956;SDS011;6543;48.836;10.092;2023-03-01T14:40:23;24.77;;;13.97;;
12956;SDS011;6543;48.836;10.092;2023-03-01T14:42:52;22.90;;;13.07;;
12956;SDS011;6543;48.836;10.092;2023-03-01T14:45:20;30.90;;;12.97;;
12956;SDS011;6543;48.836;10.092;2023-03-01T14:47:49;19.77;;;13.30;;
12956;SDS011;6543;48.836;10.092;2023-03-01T14:50:21;18.77;;;14.10;;
12956;SDS011;6543;48.836;10.092;2023-03-01T14:52:52;24.07;;;15.63;;
12956;SDS011;6543;48.836;10.092;2023-03-01T14:55:23;19.33;;;13.57;;
12956;SDS011;6543;48.836;10.092;2023-03-01T14:57:53;20.17;;;12.63;;
12956;SDS011;6543;48.836;10.092;2023-03-01T15:00:21;21.80;;;13.97;;
12956;SDS011;6543;48.836;10.092;2023-03-01T15:02:51;20.33;;;14.77;;
12956;SDS011;6543;48.836;10.092;2023-03-01T15:05:22;18.50;;;11.77;;
12956;SDS011;6543;48.836;10.092;2023-03-01T15:07:53;20.50;;;13.57;;
12956;SDS011;6543;48.836;10.092;2023-03-01T15:10:22;18.80;;;12.57;;
12956;SDS011;6543;48.836;10.092;2023-03-01T15:12:50;18.93;;;13.63;;
12956;SDS011;6543;48.836;10.092;2023-03-01T15:18:06;18.27;;;13.00;;
12956;SDS011;6543;48.836;10.092;2023-03-01T15:20:42;18.40;;;12.50;;
12956;SDS011;6543;48.836;10.092;2023-03-01T15:23:18;23.30;;;13.80;;
12956;SDS011;6543;48.836;10.092;2023-03-01T15:25:48;25.47;;;13.67;;